createdAt,value
2017-12-01T00:01:52.904Z,100306.05
2017-12-01T00:04:20.564Z,100309.43
2017-12-01T00:06:48.143Z,100310.27
2017-12-01T00:09:15.721Z,100313.73
2017-12-01T00:11:43.660Z,100320.80
2017-12-01T00:14:11.529Z,100320.80
2017-12-01T00:16:39.184Z,100320.25
2017-12-01T00:19:06.760Z,100324.21
2017-12-01T00:21:34.347Z,100329.70
2017-12-01T00:24:01.962Z,100331.91
2017-12-01T00:26:29.540Z,100328.15
2017-12-01T00:28:57.504Z,100324.75
2017-12-01T00:31:25.089Z,100327.25
2017-12-01T00:33:52.692Z,100327.05
2017-12-01T00:36:20.287Z,100338.36
2017-12-01T00:38:47.867Z,100345.55
2017-12-01T00:41:15.520Z,100357.98
2017-12-01T00:43:43.100Z,100353.48
2017-12-01T00:46:10.682Z,100354.67
2017-12-01T00:48:38.292Z,100354.03
2017-12-01T00:51:06.172Z,100356.93
2017-12-01T00:53:34.038Z,100354.23
2017-12-01T00:56:01.620Z,100356.09
2017-12-01T00:58:29.465Z,100360.62
2017-12-01T01:00:57.084Z,100358.31
2017-12-01T01:03:25.156Z,100365.06
2017-12-01T01:05:53.075Z,100369.02
2017-12-01T01:08:20.665Z,100370.47
2017-12-01T01:10:49.807Z,100375.67
2017-12-01T01:13:17.695Z,100376.77
2017-12-01T01:15:45.285Z,100383.58
2017-12-01T01:18:12.900Z,100380.72
2017-12-01T01:20:40.792Z,100386.41
2017-12-01T01:23:08.419Z,100392.52
2017-12-01T01:25:36.048Z,100387.77
2017-12-01T01:28:03.999Z,100393.45
2017-12-01T01:30:31.620Z,100396.38
2017-12-01T01:32:59.221Z,100406.22
2017-12-01T01:35:26.805Z,100409.45
2017-12-01T01:37:54.424Z,100411.80
2017-12-01T01:40:22.019Z,100409.59
2017-12-01T01:42:49.668Z,100408.56
2017-12-01T01:45:17.274Z,100401.36
2017-12-01T01:47:44.869Z,100406.34
2017-12-01T01:50:12.496Z,100412.03
2017-12-01T01:52:40.423Z,100413.28
2017-12-01T01:55:08.056Z,100415.02
2017-12-01T01:57:35.643Z,100416.20
2017-12-01T02:00:03.304Z,100420.89
2017-12-01T02:02:30.919Z,100424.17
2017-12-01T02:04:58.575Z,100423.27
2017-12-01T02:07:26.209Z,100424.94
2017-12-01T02:09:54.053Z,100423.34
2017-12-01T02:12:21.624Z,100426.61
2017-12-01T02:14:49.241Z,100422.66
2017-12-01T02:17:17.144Z,100429.12
2017-12-01T02:19:44.800Z,100426.26
2017-12-01T02:22:12.382Z,100427.73
2017-12-01T02:24:39.968Z,100436.60
2017-12-01T02:27:07.898Z,100439.95
2017-12-01T02:29:35.504Z,100439.11
2017-12-01T02:32:03.125Z,100449.42
2017-12-01T02:34:30.724Z,100442.71
2017-12-01T02:36:58.311Z,100448.05
2017-12-01T02:39:25.937Z,100445.77
2017-12-01T02:41:53.772Z,100446.53
2017-12-01T02:44:21.641Z,100444.16
2017-12-01T02:46:49.234Z,100449.07
2017-12-01T02:49:17.172Z,100451.64
2017-12-01T02:51:44.792Z,100460.25
2017-12-01T02:54:12.388Z,100454.21
2017-12-01T02:56:40.064Z,100454.50
2017-12-01T02:59:07.648Z,100452.34
2017-12-01T03:01:35.256Z,100453.13
2017-12-01T03:04:02.951Z,100456.43
2017-12-01T03:06:30.555Z,100462.05
2017-12-01T03:08:58.448Z,100462.47
2017-12-01T03:11:26.344Z,100463.98
2017-12-01T03:13:54.176Z,100466.84
2017-12-01T03:16:22.080Z,100464.50
2017-12-01T03:18:49.662Z,100470.56
2017-12-01T03:21:17.286Z,100471.76
2017-12-01T03:23:44.894Z,100470.31
2017-12-01T03:26:12.613Z,100477.73
2017-12-01T03:28:40.232Z,100480.20
2017-12-01T03:31:07.826Z,100480.27
2017-12-01T03:33:35.444Z,100478.89
2017-12-01T03:36:03.032Z,100485.25
2017-12-01T03:38:30.652Z,100481.59
2017-12-01T03:40:58.319Z,100490.14
2017-12-01T03:43:25.909Z,100484.93
2017-12-01T03:45:53.540Z,100487.41
2017-12-01T03:48:21.128Z,100486.92
2017-12-01T03:50:48.720Z,100485.89
2017-12-01T03:53:16.364Z,100489.14
2017-12-01T03:55:43.982Z,100492.90
2017-12-01T03:58:11.557Z,100486.53
2017-12-01T04:00:39.169Z,100492.48
2017-12-01T04:03:06.765Z,100497.56
2017-12-01T04:05:34.359Z,100498.88
2017-12-01T04:08:01.991Z,100495.64
2017-12-01T04:10:29.577Z,100503.89
2017-12-01T04:12:57.173Z,100505.41
2017-12-01T04:15:24.784Z,100508.65
2017-12-01T04:17:52.369Z,100511.64
2017-12-01T04:20:19.986Z,100514.92
2017-12-01T04:22:47.566Z,100518.09
2017-12-01T04:25:15.142Z,100515.34
2017-12-01T04:27:42.790Z,100519.70
2017-12-01T04:30:10.380Z,100518.87
2017-12-01T04:32:38.026Z,100534.03
2017-12-01T04:35:05.969Z,100526.32
2017-12-01T04:37:33.548Z,100528.70
2017-12-01T04:40:01.165Z,100531.88
2017-12-01T04:42:28.750Z,100541.33
2017-12-01T04:44:56.380Z,100539.85
2017-12-01T04:47:24.008Z,100544.45
2017-12-01T04:49:51.599Z,100546.86
2017-12-01T04:52:19.212Z,100549.66
2017-12-01T04:54:46.824Z,100560.42
2017-12-01T04:57:14.740Z,100563.67
2017-12-01T04:59:42.360Z,100564.50
2017-12-01T05:02:10.808Z,100570.73
2017-12-01T05:04:38.421Z,100568.23
2017-12-01T05:07:06.079Z,100572.61
2017-12-01T05:09:33.765Z,100570.73
2017-12-01T05:12:01.372Z,100576.63
2017-12-01T05:14:28.968Z,100580.45
2017-12-01T05:16:56.868Z,100579.84
2017-12-01T05:19:24.475Z,100586.27
2017-12-01T05:21:52.109Z,100582.66
2017-12-01T05:24:19.695Z,100591.95
2017-12-01T05:26:47.616Z,100592.14
2017-12-01T05:29:15.244Z,100600.98
2017-12-01T05:31:42.839Z,100601.52
2017-12-01T05:34:10.747Z,100602.17
2017-12-01T05:36:38.334Z,100601.34
2017-12-01T05:39:05.973Z,100606.92
2017-12-01T05:41:33.591Z,100601.34
2017-12-01T05:44:01.192Z,100606.31
2017-12-01T05:46:28.860Z,100603.33
2017-12-01T05:48:56.443Z,100605.66
2017-12-01T05:51:24.344Z,100607.75
2017-12-01T05:53:52.421Z,100613.74
2017-12-01T05:56:19.999Z,100618.81
2017-12-01T05:58:47.620Z,100629.60
2017-12-01T06:01:15.192Z,100631.92
2017-12-01T06:03:43.068Z,100636.78
2017-12-01T06:06:10.687Z,100638.87
2017-12-01T06:08:38.286Z,100642.61
2017-12-01T06:11:06.183Z,100645.64
2017-12-01T06:13:34.004Z,100649.72
2017-12-01T06:16:01.774Z,100642.61
2017-12-01T06:18:30.126Z,100649.19
2017-12-01T06:20:57.737Z,100647.19
2017-12-01T06:23:25.409Z,100651.75
2017-12-01T06:25:52.988Z,100660.13
2017-12-01T06:28:20.580Z,100661.86
2017-12-01T06:30:48.236Z,100663.05
2017-12-01T06:33:15.828Z,100665.22
2017-12-01T06:35:43.468Z,100668.44
2017-12-01T06:38:11.380Z,100665.61
2017-12-01T06:40:38.968Z,100665.04
2017-12-01T06:43:06.918Z,100677.32
2017-12-01T06:45:34.543Z,100672.77
2017-12-01T06:48:02.177Z,100671.99
2017-12-01T06:50:29.767Z,100673.34
2017-12-01T06:52:57.362Z,100682.31
2017-12-01T06:55:25.332Z,100675.67
2017-12-01T06:57:52.926Z,100673.75
2017-12-01T07:00:20.866Z,100684.37
2017-12-01T07:02:48.458Z,100690.96
2017-12-01T07:05:16.122Z,100689.70
2017-12-01T07:07:44.070Z,100700.03
2017-12-01T07:10:11.956Z,100703.02
2017-12-01T07:12:39.617Z,100707.03
2017-12-01T07:15:08.550Z,100711.99
2017-12-01T07:17:36.192Z,100711.99
2017-12-01T07:20:03.832Z,100713.38
2017-12-01T07:22:31.703Z,100712.47
2017-12-01T07:24:59.341Z,100714.69
2017-12-01T07:27:26.942Z,100719.14
2017-12-01T07:29:54.531Z,100719.11
2017-12-01T07:32:22.144Z,100732.76
2017-12-01T07:34:50.003Z,100728.23
2017-12-01T07:37:17.637Z,100736.50
2017-12-01T07:39:45.229Z,100735.42
2017-12-01T07:42:13.093Z,100742.52
2017-12-01T07:44:46.296Z,100751.38
2017-12-01T07:47:13.880Z,100752.17
2017-12-01T07:49:41.547Z,100748.73
2017-12-01T07:52:09.171Z,100752.80
2017-12-01T07:54:36.749Z,100752.45
2017-12-01T07:57:04.509Z,100757.92
2017-12-01T07:59:32.364Z,100756.61
2017-12-01T08:02:00.000Z,100766.39
2017-12-01T08:04:27.617Z,100770.35
2017-12-01T08:06:55.229Z,100779.36
2017-12-01T08:09:22.913Z,100786.99
2017-12-01T08:11:50.776Z,100790.02
2017-12-01T08:14:18.419Z,100794.99
2017-12-01T08:19:50.936Z,100800.33
2017-12-01T08:25:29.813Z,100812.62
2017-12-01T08:27:57.417Z,100822.15
2017-12-01T08:30:25.024Z,100829.17
2017-12-01T08:32:52.635Z,100828.25
2017-12-01T08:35:20.237Z,100834.43
2017-12-01T08:37:47.893Z,100837.86
2017-12-01T08:40:15.758Z,100836.41
2017-12-01T08:42:43.343Z,100834.02
2017-12-01T08:45:11.602Z,100839.17
2017-12-01T08:47:39.233Z,100841.04
2017-12-01T08:50:06.862Z,100840.80
2017-12-01T08:52:34.789Z,100846.38
2017-12-01T08:55:02.368Z,100847.59
2017-12-01T08:57:29.986Z,100854.41
2017-12-01T08:59:57.892Z,100859.40
2017-12-01T09:02:25.800Z,100861.86
2017-12-01T09:04:53.419Z,100863.98
2017-12-01T09:07:21.020Z,100865.30
2017-12-01T09:09:48.949Z,100870.58
2017-12-01T09:12:16.547Z,100872.62
2017-12-01T09:14:44.159Z,100879.05
2017-12-01T09:17:11.729Z,100882.70
2017-12-01T09:19:39.482Z,100886.47
2017-12-01T09:22:07.362Z,100892.72
2017-12-01T09:24:34.984Z,100892.30
2017-12-01T09:27:02.619Z,100890.09
2017-12-01T09:29:30.205Z,100897.28
2017-12-01T09:31:58.124Z,100888.59
2017-12-01T09:34:25.758Z,100887.13
2017-12-01T09:36:53.373Z,100895.23
2017-12-01T09:39:21.009Z,100896.30
2017-12-01T09:41:48.615Z,100899.73
2017-12-01T09:44:16.532Z,100898.13
2017-12-01T09:46:44.144Z,100906.94
2017-12-01T09:49:12.065Z,100903.41
2017-12-01T09:51:40.038Z,100902.03
2017-12-01T09:54:07.901Z,100903.03
2017-12-01T09:56:35.768Z,100903.21
2017-12-01T09:59:03.406Z,100912.77
2017-12-01T10:01:31.023Z,100906.81
2017-12-01T10:03:58.660Z,100904.38
2017-12-01T10:06:26.266Z,100904.84
2017-12-01T10:08:53.842Z,100899.56
2017-12-01T10:11:21.461Z,100906.75
2017-12-01T10:13:49.044Z,100914.14
2017-12-01T10:16:16.724Z,100916.91
2017-12-01T10:18:44.368Z,100914.45
2017-12-01T10:21:11.951Z,100908.20
2017-12-01T10:23:39.612Z,100911.44
2017-12-01T10:26:07.214Z,100916.31
2017-12-01T10:28:35.191Z,100919.12
2017-12-01T10:31:02.777Z,100916.96
2017-12-01T10:33:30.372Z,100917.25
2017-12-01T10:35:58.028Z,100917.09
2017-12-01T10:38:25.636Z,100913.64
2017-12-01T10:40:53.261Z,100918.28
2017-12-01T10:43:20.853Z,100920.93
2017-12-01T10:45:48.466Z,100922.44
2017-12-01T10:48:16.097Z,100921.94
2017-12-01T10:50:43.692Z,100926.02
2017-12-01T10:53:11.319Z,100925.41
2017-12-01T10:55:38.909Z,100922.93
2017-12-01T10:58:06.493Z,100929.98
2017-12-01T11:00:34.100Z,100934.88
2017-12-01T11:03:01.722Z,100939.63
2017-12-01T11:05:29.527Z,100935.94
2017-12-01T11:07:57.100Z,100939.09
2017-12-01T11:10:24.731Z,100939.66
2017-12-01T11:12:53.339Z,100949.00
2017-12-01T11:15:20.976Z,100943.61
2017-12-01T11:17:48.604Z,100935.55
2017-12-01T11:20:16.217Z,100938.73
2017-12-01T11:22:43.820Z,100947.42
2017-12-01T11:25:11.433Z,100951.45
2017-12-01T11:27:39.034Z,100951.23
2017-12-01T11:30:06.657Z,100954.69
2017-12-01T11:32:34.544Z,100957.97
2017-12-01T11:35:02.120Z,100959.23
2017-12-01T11:37:31.341Z,100971.00
2017-12-01T11:39:59.188Z,100968.91
2017-12-01T11:42:26.824Z,100967.67
2017-12-01T11:44:54.694Z,100973.86
2017-12-01T11:47:22.270Z,100969.89
2017-12-01T11:49:50.219Z,100976.27
2017-12-01T11:52:17.832Z,100974.88
2017-12-01T11:54:45.461Z,100965.81
2017-12-01T11:57:13.084Z,100975.87
2017-12-01T11:59:40.676Z,100978.55
2017-12-01T12:02:08.636Z,100980.35
2017-12-01T12:04:36.311Z,100973.50
2017-12-01T12:07:03.941Z,100977.29
2017-12-01T12:09:31.515Z,100979.77
2017-12-01T12:11:59.105Z,100981.94
2017-12-01T12:14:26.720Z,100985.03
2017-12-01T12:16:54.303Z,100978.30
2017-12-01T12:19:21.929Z,100987.39
2017-12-01T12:21:49.524Z,100990.03
2017-12-01T12:24:17.124Z,100993.75
2017-12-01T12:26:44.744Z,100990.09
2017-12-01T12:29:12.630Z,100995.50
2017-12-01T12:31:40.317Z,100999.77
2017-12-01T12:34:07.909Z,100994.30
2017-12-01T12:36:35.516Z,100998.92
2017-12-01T12:39:03.211Z,101008.95
2017-12-01T12:41:30.817Z,101009.59
2017-12-01T12:43:58.476Z,101014.30
2017-12-01T12:46:26.083Z,101012.41
2017-12-01T12:48:53.679Z,101014.66
2017-12-01T12:51:21.304Z,101011.47
2017-12-01T12:53:48.909Z,101020.23
2017-12-01T12:56:16.618Z,101019.58
2017-12-01T12:58:44.184Z,101016.53
2017-12-01T13:01:11.781Z,101025.23
2017-12-01T13:03:39.712Z,101027.88
2017-12-01T13:06:07.620Z,101029.61
2017-12-01T13:08:35.240Z,101028.03
2017-12-01T13:11:02.832Z,101031.30
2017-12-01T13:13:30.487Z,101034.42
2017-12-01T13:15:58.077Z,101033.52
2017-12-01T13:18:25.667Z,101035.48
2017-12-01T13:20:53.296Z,101044.39
2017-12-01T13:23:20.893Z,101051.55
2017-12-01T13:25:48.786Z,101053.94
2017-12-01T13:28:16.444Z,101057.34
2017-12-01T13:30:44.075Z,101049.66
2017-12-01T13:33:11.796Z,101049.38
2017-12-01T13:35:39.411Z,101052.84
2017-12-01T13:38:07.300Z,101052.27
2017-12-01T13:40:35.167Z,101059.09
2017-12-01T13:43:02.829Z,101074.37
2017-12-01T13:45:30.445Z,101076.10
2017-12-01T13:47:58.124Z,101077.06
2017-12-01T13:50:25.745Z,101083.50
2017-12-01T13:52:53.449Z,101081.81
2017-12-01T13:55:21.077Z,101087.22
2017-12-01T13:57:48.897Z,101082.82
2017-12-01T14:00:16.824Z,101082.09
2017-12-01T14:02:44.456Z,101088.00
2017-12-01T14:05:12.053Z,101099.77
2017-12-01T14:07:39.740Z,101094.55
2017-12-01T14:10:07.653Z,101095.44
2017-12-01T14:12:35.284Z,101094.55
2017-12-01T14:15:04.092Z,101102.11
2017-12-01T14:17:31.675Z,101104.46
2017-12-01T14:19:59.274Z,101105.91
2017-12-01T14:22:26.891Z,101112.44
2017-12-01T14:24:54.492Z,101114.24
2017-12-01T14:27:22.107Z,101111.91
2017-12-01T14:29:50.224Z,101120.05
2017-12-01T14:32:17.865Z,101111.34
2017-12-01T14:34:45.500Z,101115.33
2017-12-01T14:37:13.111Z,101118.02
2017-12-01T14:39:40.820Z,101125.22
2017-12-01T14:42:08.433Z,101125.39
2017-12-01T14:44:36.035Z,101126.97
2017-12-01T14:47:03.676Z,101130.45
2017-12-01T14:49:31.282Z,101135.44
2017-12-01T14:51:58.922Z,101130.42
2017-12-01T14:54:27.259Z,101133.17
2017-12-01T14:56:54.876Z,101131.61
2017-12-01T14:59:22.499Z,101139.53
2017-12-01T15:01:50.100Z,101139.30
2017-12-01T15:04:18.062Z,101141.61
2017-12-01T15:06:45.676Z,101147.64
2017-12-01T15:09:13.252Z,101156.65
2017-12-01T15:11:40.864Z,101157.73
2017-12-01T15:14:08.502Z,101158.05
2017-12-01T15:16:36.159Z,101164.88
2017-12-01T15:19:04.036Z,101169.89
2017-12-01T15:21:31.972Z,101172.17
2017-12-01T15:23:59.612Z,101174.03
2017-12-01T15:26:27.240Z,101180.64
2017-12-01T15:28:54.875Z,101186.22
2017-12-01T15:31:22.479Z,101195.31
2017-12-01T15:33:50.075Z,101197.89
2017-12-01T15:36:17.728Z,101195.23
2017-12-01T15:38:45.317Z,101196.31
2017-12-01T15:41:13.212Z,101203.84
2017-12-01T15:43:41.076Z,101209.58
2017-12-01T15:46:08.680Z,101220.44
2017-12-01T15:48:36.353Z,101227.05
2017-12-01T15:51:04.273Z,101223.92
2017-12-01T15:53:31.902Z,101235.39
2017-12-01T15:55:59.513Z,101225.88
2017-12-01T15:58:27.476Z,101236.34
2017-12-01T16:00:55.104Z,101238.88
2017-12-01T16:03:22.698Z,101240.20
2017-12-01T16:05:50.319Z,101244.09
2017-12-01T16:08:18.240Z,101247.58
2017-12-01T16:10:45.903Z,101253.22
2017-12-01T16:13:13.517Z,101262.83
2017-12-01T16:15:41.460Z,101264.03
2017-12-01T16:18:09.512Z,101269.65
2017-12-01T16:20:37.129Z,101273.61
2017-12-01T16:23:04.733Z,101279.53
2017-12-01T16:25:33.565Z,101279.14
2017-12-01T16:28:01.232Z,101285.45
2017-12-01T16:30:28.870Z,101281.48
2017-12-01T16:33:00.284Z,101288.02
2017-12-01T16:35:24.168Z,101289.70
2017-12-01T16:37:51.841Z,101288.92
2017-12-01T16:40:19.444Z,101289.36
2017-12-01T16:42:49.511Z,101298.22
2017-12-01T16:45:17.481Z,101298.31
2017-12-01T16:47:45.350Z,101297.85
2017-12-01T16:50:13.031Z,101301.69
2017-12-01T16:52:40.874Z,101299.83
2017-12-01T16:55:08.542Z,101308.11
2017-12-01T16:57:36.133Z,101307.04
2017-12-01T17:00:03.814Z,101313.52
2017-12-01T17:02:31.541Z,101317.82
2017-12-01T17:04:59.495Z,101314.06
2017-12-01T17:07:27.113Z,101321.45
2017-12-01T17:09:54.709Z,101334.09
2017-12-01T17:12:22.383Z,101326.79
2017-12-01T17:14:50.009Z,101331.94
2017-12-01T17:17:17.909Z,101334.84
2017-12-01T17:19:45.549Z,101337.01
2017-12-01T17:22:13.134Z,101342.56
2017-12-01T17:24:41.002Z,101344.88
2017-12-01T17:27:08.636Z,101341.30
2017-12-01T17:29:36.215Z,101349.66
2017-12-01T17:32:03.842Z,101350.98
2017-12-01T17:34:31.440Z,101348.63
2017-12-01T17:36:59.051Z,101355.13
2017-12-01T17:39:26.699Z,101356.15
2017-12-01T17:41:54.339Z,101350.92
2017-12-01T17:44:21.925Z,101354.05
2017-12-01T17:46:49.556Z,101355.73
2017-12-01T17:49:17.144Z,101357.42
2017-12-01T17:51:44.987Z,101363.66
2017-12-01T17:54:12.631Z,101366.25
2017-12-01T17:56:40.261Z,101369.31
2017-12-01T17:59:07.877Z,101377.77
2017-12-01T18:01:35.579Z,101374.41
2017-12-01T18:04:03.281Z,101378.95
2017-12-01T18:06:30.942Z,101380.00
2017-12-01T18:08:58.779Z,101380.27
2017-12-01T18:11:26.378Z,101393.37
2017-12-01T18:13:53.987Z,101396.01
2017-12-01T18:16:21.601Z,101397.55
2017-12-01T18:18:49.265Z,101407.00
2017-12-01T18:21:16.862Z,101400.20
2017-12-01T18:23:44.707Z,101405.70
2017-12-01T18:26:12.389Z,101409.13
2017-12-01T18:28:40.032Z,101408.17
2017-12-01T18:31:07.678Z,101415.79
2017-12-01T18:33:35.449Z,101421.80
2017-12-01T18:36:03.340Z,101424.72
2017-12-01T18:38:30.977Z,101427.61
2017-12-01T18:40:58.564Z,101425.66
2017-12-01T18:43:26.249Z,101426.07
2017-12-01T18:45:53.888Z,101432.11
2017-12-01T18:48:21.517Z,101428.71
2017-12-01T18:50:49.124Z,101432.92
2017-12-01T18:53:16.973Z,101428.82
2017-12-01T18:55:44.616Z,101432.55
2017-12-01T18:58:12.197Z,101433.20
2017-12-01T19:00:39.822Z,101439.64
2017-12-01T19:03:07.464Z,101445.39
2017-12-01T19:05:35.060Z,101447.36
2017-12-01T19:08:03.610Z,101453.06
2017-12-01T19:10:31.229Z,101453.80
2017-12-01T19:12:59.102Z,101459.66
2017-12-01T19:15:26.964Z,101452.95
2017-12-01T19:17:54.833Z,101465.84
2017-12-01T19:20:22.806Z,101468.95
2017-12-01T19:22:50.395Z,101470.84
2017-12-01T19:25:17.993Z,101471.02
2017-12-01T19:27:45.896Z,101471.91
2017-12-01T19:30:13.510Z,101477.02
2017-12-01T19:32:41.131Z,101479.99
2017-12-01T19:35:08.782Z,101481.94
2017-12-01T19:37:36.479Z,101480.56
2017-12-01T19:40:04.418Z,101486.17
2017-12-01T19:42:32.007Z,101489.12
2017-12-01T19:44:59.992Z,101487.11
2017-12-01T19:47:27.568Z,101486.42
2017-12-01T19:49:55.175Z,101493.40
2017-12-01T19:52:22.792Z,101498.31
2017-12-01T19:54:50.434Z,101505.86
2017-12-01T19:57:18.072Z,101510.25
2017-12-01T19:59:45.700Z,101508.81
2017-12-01T20:02:13.321Z,101516.62
2017-12-01T20:04:40.941Z,101515.53
2017-12-01T20:07:08.612Z,101518.33
2017-12-01T20:09:36.251Z,101522.08
2017-12-01T20:12:03.944Z,101525.50
2017-12-01T20:14:31.539Z,101526.56
2017-12-01T20:16:59.477Z,101531.94
2017-12-01T20:19:27.342Z,101531.09
2017-12-01T20:21:54.980Z,101531.63
2017-12-01T20:24:22.593Z,101532.37
2017-12-01T20:26:50.185Z,101536.12
2017-12-01T20:29:17.808Z,101534.85
2017-12-01T20:31:45.648Z,101540.61
2017-12-01T20:34:13.286Z,101549.44
2017-12-01T20:36:40.897Z,101549.02
2017-12-01T20:39:08.504Z,101545.79
2017-12-01T20:41:36.163Z,101546.47
2017-12-01T20:44:03.820Z,101547.95
2017-12-01T20:46:31.455Z,101546.95
2017-12-01T20:48:59.409Z,101549.53
2017-12-01T20:51:27.089Z,101551.33
2017-12-01T20:53:54.744Z,101559.67
2017-12-01T20:56:22.445Z,101559.26
2017-12-01T20:58:50.091Z,101563.05
2017-12-01T21:01:17.732Z,101556.83
2017-12-01T21:03:45.382Z,101561.04
2017-12-01T21:06:13.020Z,101564.05
2017-12-01T21:08:40.825Z,101567.39
2017-12-01T21:11:08.684Z,101565.37
2017-12-01T21:13:36.549Z,101563.78
2017-12-01T21:16:04.124Z,101567.33
2017-12-01T21:18:31.761Z,101570.70
2017-12-01T21:20:59.337Z,101573.14
2017-12-01T21:23:26.987Z,101568.64
2017-12-01T21:25:54.853Z,101569.68
2017-12-01T21:28:22.437Z,101574.23
2017-12-01T21:30:50.059Z,101571.49
2017-12-01T21:33:17.639Z,101574.39
2017-12-01T21:35:45.264Z,101574.67
2017-12-01T21:38:16.342Z,101572.61
2017-12-01T21:40:44.208Z,101574.56
2017-12-01T21:43:12.208Z,101578.95
2017-12-01T21:45:39.819Z,101579.31
2017-12-01T21:48:07.440Z,101579.37
2017-12-01T21:50:35.042Z,101579.37
2017-12-01T21:53:02.631Z,101584.12
2017-12-01T21:55:30.262Z,101589.47
2017-12-01T21:57:57.841Z,101587.82
2017-12-01T22:00:25.455Z,101592.00
2017-12-01T22:02:53.043Z,101595.01
2017-12-01T22:05:20.621Z,101598.02
2017-12-01T22:07:48.247Z,101596.59
2017-12-01T22:10:15.873Z,101600.02
2017-12-01T22:12:43.528Z,101601.67
2017-12-01T22:15:11.191Z,101599.72
2017-12-01T22:17:38.792Z,101607.48
2017-12-01T22:20:06.410Z,101613.77
2017-12-01T22:22:34.025Z,101614.04
2017-12-01T22:25:01.687Z,101614.72
2017-12-01T22:27:29.273Z,101617.36
2017-12-01T22:29:57.164Z,101616.63
2017-12-01T22:32:24.861Z,101615.25
2017-12-01T22:34:52.471Z,101620.16
2017-12-01T22:37:20.105Z,101630.55
2017-12-01T22:39:47.687Z,101628.02
2017-12-01T22:42:15.277Z,101634.04
2017-12-01T22:44:42.889Z,101629.18
2017-12-01T22:47:10.466Z,101627.80
2017-12-01T22:49:38.092Z,101633.26
2017-12-01T22:52:05.685Z,101641.01
2017-12-01T22:54:33.593Z,101637.63
2017-12-01T22:57:03.040Z,101644.23
2017-12-01T22:59:30.660Z,101648.09
2017-12-01T23:01:58.285Z,101647.47
2017-12-01T23:04:25.888Z,101647.72
2017-12-01T23:06:53.483Z,101643.23
2017-12-01T23:09:21.104Z,101646.92
2017-12-01T23:11:48.700Z,101652.42
2017-12-01T23:14:16.341Z,101654.02
2017-12-01T23:16:43.975Z,101660.34
2017-12-01T23:19:11.596Z,101660.87
2017-12-01T23:21:39.535Z,101661.77
2017-12-01T23:24:07.191Z,101663.03
2017-12-01T23:26:34.812Z,101662.08
2017-12-01T23:29:02.395Z,101663.80
2017-12-01T23:31:29.992Z,101665.95
2017-12-01T23:33:57.603Z,101669.92
2017-12-01T23:36:25.196Z,101666.52
2017-12-01T23:38:52.819Z,101667.92
2017-12-01T23:41:20.412Z,101664.20
2017-12-01T23:43:47.995Z,101669.00
2017-12-01T23:46:15.603Z,101671.59
2017-12-01T23:48:43.216Z,101666.52
2017-12-01T23:51:10.852Z,101665.99
2017-12-01T23:53:38.484Z,101676.92
2017-12-01T23:56:06.053Z,101679.88
2017-12-01T23:58:33.680Z,101682.58
